Time,TemperatureF,DewpointF,PressureIn,WindDirection,WindDirectionDegrees,WindSpeedMPH,WindSpeedGustMPH,Humidity,HourlyPrecipIn,Conditions,Clouds,dailyrainin,SoftwareType,DateUTC
2013-11-07 00:11:00,36.0,25.0,-100.00,SSE,154,1.0,2.0,63,0.00,,,-99.99,,2013-11-07 08:11:00,
2013-11-07 00:20:00,37.0,24.0,-100.00,ESE,112,1.0,3.0,60,0.00,,,-99.99,,2013-11-07 08:20:00,
2013-11-07 00:22:00,36.0,25.0,-100.00,SSE,154,1.0,2.0,63,0.00,,,-99.99,,2013-11-07 08:22:00,
2013-11-07 00:42:00,37.0,23.0,-100.00,ESE,112,1.0,3.0,57,0.00,,,-99.99,,2013-11-07 08:42:00,
2013-11-07 00:52:00,37.0,24.0,-100.00,ESE,112,1.0,3.0,60,0.00,,,-99.99,,2013-11-07 08:52:00,
2013-11-07 01:02:00,37.0,24.0,-100.00,ESE,112,1.0,3.0,60,0.00,,,-99.99,,2013-11-07 09:02:00,
2013-11-07 01:11:00,37.0,24.0,-100.00,ESE,112,1.0,3.0,60,0.00,,,-99.99,,2013-11-07 09:11:00,
2013-11-07 01:42:00,37.0,24.0,-100.00,East,96,0.0,2.0,58,0.00,,,-99.99,,2013-11-07 09:42:00,
2013-11-07 02:13:00,39.0,22.0,-100.00,East,96,3.0,5.0,51,0.00,,,-99.99,,2013-11-07 10:13:00,
2013-11-07 02:22:00,38.0,23.0,-100.00,East,88,2.0,4.0,55,0.00,,,-99.99,,2013-11-07 10:22:00,
2013-11-07 02:32:00,38.0,23.0,-100.00,East,88,2.0,4.0,55,0.00,,,-99.99,,2013-11-07 10:32:00,
2013-11-07 02:40:00,35.0,26.0,-100.00,SSW,202,1.0,2.0,68,0.00,,,-99.99,,2013-11-07 10:40:00,
2013-11-07 02:52:00,37.0,26.0,-100.00,ESE,119,2.0,5.0,63,0.00,,,-99.99,,2013-11-07 10:52:00,
2013-11-07 03:11:00,35.0,26.0,-100.00,SSW,202,1.0,2.0,68,0.00,,,-99.99,,2013-11-07 11:11:00,
2013-11-07 03:22:00,35.0,26.0,-100.00,SSW,202,1.0,2.0,68,0.00,,,-99.99,,2013-11-07 11:22:00,
2013-11-07 03:52:00,36.0,25.0,-100.00,ESE,103,2.0,4.0,64,0.00,,,-99.99,,2013-11-07 11:52:00,
2013-11-07 04:02:00,36.0,25.0,-100.00,ESE,103,2.0,4.0,64,0.00,,,-99.99,,2013-11-07 12:02:00,
2013-11-07 04:22:00,35.0,24.0,-100.00,NE,41,2.0,4.0,65,0.00,,,-99.99,,2013-11-07 12:22:00,
2013-11-07 04:42:00,34.0,23.0,-100.00,NNE,17,1.0,3.0,63,0.00,,,-99.99,,2013-11-07 12:42:00,
2013-11-07 05:12:00,34.0,23.0,-100.00,NE,47,2.0,3.0,63,0.00,,,-99.99,,2013-11-07 13:12:00,
2013-11-07 05:21:00,35.0,24.0,-100.00,ESE,110,2.0,4.0,65,0.00,,,-99.99,,2013-11-07 13:21:00,
2013-11-07 05:31:00,35.0,24.0,-100.00,ESE,110,2.0,4.0,65,0.00,,,-99.99,,2013-11-07 13:31:00,
2013-11-07 05:52:00,34.0,25.0,-100.00,ESE,106,0.0,2.0,69,0.00,,,-99.99,,2013-11-07 13:52:00,
2013-11-07 06:11:00,35.0,25.0,-100.00,ESE,104,0.0,2.0,66,0.00,,,-99.99,,2013-11-07 14:11:00,
2013-11-07 06:22:00,35.0,25.0,-100.00,ESE,104,0.0,2.0,66,0.00,,,-99.99,,2013-11-07 14:22:00,
2013-11-07 06:52:00,34.0,24.0,-100.00,North,4,2.0,4.0,67,0.00,,,-99.99,,2013-11-07 14:52:00,
2013-11-07 07:02:00,34.0,24.0,-100.00,North,4,2.0,4.0,67,0.00,,,-99.99,,2013-11-07 15:02:00,
2013-11-07 07:11:00,34.0,24.0,-100.00,North,4,2.0,4.0,67,0.00,,,-99.99,,2013-11-07 15:11:00,
2013-11-07 07:22:00,33.0,24.0,-100.00,SSE,154,3.0,5.0,70,0.00,,,-99.99,,2013-11-07 15:22:00,
2013-11-07 07:43:00,33.0,25.0,-100.00,SE,143,1.0,3.0,71,0.00,,,-99.99,,2013-11-07 15:43:00,
2013-11-07 08:13:00,35.0,26.0,-100.00,ENE,59,0.0,3.0,68,0.00,,,-99.99,,2013-11-07 16:13:00,
2013-11-07 08:23:00,36.0,25.0,-100.00,NE,49,1.0,3.0,63,0.00,,,-99.99,,2013-11-07 16:23:00,
2013-11-07 08:33:00,36.0,25.0,-100.00,NE,49,1.0,3.0,63,0.00,,,-99.99,,2013-11-07 16:33:00,
2013-11-07 08:42:00,36.0,25.0,-100.00,NE,49,1.0,3.0,63,0.00,,,-99.99,,2013-11-07 16:42:00,
2013-11-07 08:52:00,38.0,26.0,-100.00,SE,137,1.0,4.0,62,0.00,,,-99.99,,2013-11-07 16:52:00,
2013-11-07 09:02:00,38.0,26.0,-100.00,SE,137,1.0,4.0,62,0.00,,,-99.99,,2013-11-07 17:02:00,
2013-11-07 09:22:00,40.0,26.0,-100.00,South,186,1.0,3.0,58,0.00,,,-99.99,,2013-11-07 17:22:00,
2013-11-07 09:42:00,41.0,27.0,-100.00,SSE,147,1.0,3.0,56,0.00,,,-99.99,,2013-11-07 17:42:00,
2013-11-07 09:52:00,43.0,26.0,-100.00,ENE,58,1.0,4.0,50,0.00,,,-99.99,,2013-11-07 17:52:00,
2013-11-07 10:02:00,43.0,26.0,-100.00,ENE,58,1.0,4.0,50,0.00,,,-99.99,,2013-11-07 18:02:00,
2013-11-07 10:12:00,43.0,26.0,-100.00,ENE,58,1.0,4.0,50,0.00,,,-99.99,,2013-11-07 18:12:00,
2013-11-07 10:22:00,42.0,27.0,-100.00,WNW,288,4.0,7.0,55,0.00,,,-99.99,,2013-11-07 18:22:00,
2013-11-07 10:42:00,42.0,27.0,-100.00,NW,304,4.0,7.0,54,0.00,,,-99.99,,2013-11-07 18:42:00,
2013-11-07 11:11:00,43.0,26.0,-100.00,NW,306,1.0,5.0,50,0.00,,,-99.99,,2013-11-07 19:11:00,
2013-11-07 11:21:00,46.0,26.0,-100.00,ESE,123,1.0,4.0,46,0.00,,,-99.99,,2013-11-07 19:21:00,
2013-11-07 11:31:00,46.0,26.0,-100.00,ESE,123,1.0,4.0,46,0.00,,,-99.99,,2013-11-07 19:31:00,
2013-11-07 11:52:00,49.0,26.0,-100.00,South,174,2.0,5.0,40,0.00,,,-99.99,,2013-11-07 19:52:00,
2013-11-07 12:01:00,49.0,26.0,-100.00,South,174,2.0,5.0,40,0.00,,,-99.99,,2013-11-07 20:01:00,
2013-11-07 13:43:00,59.0,26.0,-100.00,WNW,284,2.0,6.0,28,0.00,,,-99.99,,2013-11-07 21:43:00,
2013-11-07 14:23:00,64.0,24.0,-100.00,ESE,116,2.0,4.0,22,0.00,,,-99.99,,2013-11-07 22:23:00,
2013-11-07 14:43:00,67.0,21.0,-100.00,South,174,3.0,8.0,17,0.00,,,-99.99,,2013-11-07 22:43:00,
2013-11-07 14:53:00,68.0,14.0,-100.00,SW,216,13.0,24.0,12,0.00,,,-99.99,,2013-11-07 22:53:00,
2013-11-07 15:02:00,68.0,14.0,-100.00,SW,216,13.0,24.0,12,0.00,,,-99.99,,2013-11-07 23:02:00,
2013-11-07 15:12:00,68.0,14.0,-100.00,SW,216,13.0,24.0,12,0.00,,,-99.99,,2013-11-07 23:12:00,
2013-11-07 15:22:00,68.0,15.0,-100.00,SSW,199,11.0,20.0,13,0.00,,,-99.99,,2013-11-07 23:22:00,
2013-11-07 15:43:00,67.0,15.0,-100.00,SSW,203,10.0,16.0,13,0.00,,,-99.99,,2013-11-07 23:43:00,
2013-11-07 16:12:00,66.0,14.0,-100.00,SSW,199,10.0,16.0,13,0.00,,,-99.99,,2013-11-08 00:12:00,
2013-11-07 16:22:00,65.0,13.0,-100.00,SSW,195,13.0,21.0,13,0.00,,,-99.99,,2013-11-08 00:22:00,
2013-11-07 16:32:00,65.0,13.0,-100.00,SSW,195,13.0,21.0,13,0.00,,,-99.99,,2013-11-08 00:32:00,
2013-11-07 16:42:00,65.0,13.0,-100.00,SSW,195,13.0,21.0,13,0.00,,,-99.99,,2013-11-08 00:42:00,
2013-11-07 16:52:00,63.0,15.0,-100.00,South,191,9.0,18.0,15,0.00,,,-99.99,,2013-11-08 00:52:00,
2013-11-07 17:02:00,63.0,15.0,-100.00,South,191,9.0,18.0,15,0.00,,,-99.99,,2013-11-08 01:02:00,
2013-11-07 17:12:00,63.0,15.0,-100.00,South,191,9.0,18.0,15,0.00,,,-99.99,,2013-11-08 01:12:00,
2013-11-07 17:22:00,61.0,13.0,-100.00,North,-999,-999.0,-999.0,15,0.00,,,-99.99,,2013-11-08 01:22:00,
2013-11-07 17:42:00,61.0,13.0,-100.00,South,185,9.0,15.0,15,0.00,,,-99.99,,2013-11-08 01:42:00,
2013-11-07 18:12:00,60.0,14.0,-100.00,South,189,8.0,13.0,16,0.00,,,-99.99,,2013-11-08 02:12:00,
2013-11-07 18:21:00,58.0,12.0,-100.00,South,178,7.0,15.0,16,0.00,,,-99.99,,2013-11-08 02:21:00,
2013-11-07 18:42:00,58.0,13.0,-100.00,South,174,9.0,17.0,17,0.00,,,-99.99,,2013-11-08 02:42:00,
2013-11-07 18:52:00,58.0,13.0,-100.00,South,174,9.0,17.0,17,0.00,,,-99.99,,2013-11-08 02:52:00,
2013-11-07 19:11:00,58.0,15.0,-100.00,SSE,165,10.0,20.0,19,0.00,,,-99.99,,2013-11-08 03:11:00,
2013-11-07 19:44:00,57.0,15.0,-100.00,South,172,9.0,20.0,19,0.00,,,-99.99,,2013-11-08 03:44:00,
2013-11-07 19:55:00,57.0,16.0,-100.00,SSE,155,8.0,18.0,20,0.00,,,-99.99,,2013-11-08 03:55:00,
2013-11-07 20:05:00,57.0,16.0,-100.00,SSE,155,8.0,18.0,20,0.00,,,-99.99,,2013-11-08 04:05:00,
2013-11-07 20:23:00,56.0,17.0,-100.00,SE,136,7.0,16.0,21,0.00,,,-99.99,,2013-11-08 04:23:00,
2013-11-07 20:43:00,56.0,17.0,-100.00,SE,137,7.0,18.0,21,0.00,,,-99.99,,2013-11-08 04:43:00,
2013-11-07 21:13:00,57.0,16.0,-100.00,SSE,152,7.0,15.0,20,0.00,,,-99.99,,2013-11-08 05:13:00,
2013-11-07 21:23:00,57.0,15.0,-100.00,SSE,154,9.0,16.0,19,0.00,,,-99.99,,2013-11-08 05:23:00,
2013-11-07 21:33:00,57.0,15.0,-100.00,SSE,154,9.0,16.0,19,0.00,,,-99.99,,2013-11-08 05:33:00,
2013-11-07 21:43:00,57.0,15.0,-100.00,SSE,154,9.0,16.0,19,0.00,,,-99.99,,2013-11-08 05:43:00,
2013-11-07 21:54:00,57.0,15.0,-100.00,SSE,160,9.0,17.0,19,0.00,,,-99.99,,2013-11-08 05:54:00,
2013-11-07 22:03:00,57.0,15.0,-100.00,SSE,160,9.0,17.0,19,0.00,,,-99.99,,2013-11-08 06:03:00,
2013-11-07 22:13:00,57.0,15.0,-100.00,SSE,160,9.0,17.0,19,0.00,,,-99.99,,2013-11-08 06:13:00,
2013-11-07 22:42:00,55.0,15.0,-100.00,SSW,200,6.0,11.0,20,0.00,,,-99.99,,2013-11-08 06:42:00,
2013-11-07 22:52:00,55.0,15.0,-100.00,South,172,5.0,11.0,20,0.00,,,-99.99,,2013-11-08 06:52:00,
2013-11-07 23:01:00,55.0,15.0,-100.00,South,172,5.0,11.0,20,0.00,,,-99.99,,2013-11-08 07:01:00,
2013-11-07 23:11:00,55.0,15.0,-100.00,South,172,5.0,11.0,20,0.00,,,-99.99,,2013-11-08 07:11:00,
2013-11-07 23:21:00,54.0,15.0,-100.00,SE,130,2.0,5.0,21,0.00,,,-99.99,,2013-11-08 07:21:00,
2013-11-07 23:42:00,56.0,16.0,-100.00,SSE,154,8.0,21.0,20,0.00,,,-99.99,,2013-11-08 07:42:00,